Time,TemperatureF,DewpointF,PressureIn,WindDirection,WindDirectionDegrees,WindSpeedMPH,WindSpeedGustMPH,Humidity,HourlyPrecipIn,Conditions,Clouds,dailyrainin,SoftwareType,DateUTC
2013-03-26 00:00:00,37.3,28.1,29.57,NW,305,0.0,4.0,69,0.00,,,0.00,VWS V14.01,2013-03-26 04:00:00,
2013-03-26 00:06:00,37.0,27.8,29.57,NW,305,0.0,0.0,69,0.00,,,0.00,VWS V14.01,2013-03-26 04:06:00,
2013-03-26 00:11:00,36.8,27.6,29.57,NW,305,0.0,0.0,69,0.00,,,0.00,VWS V14.01,2013-03-26 04:11:00,
2013-03-26 00:16:00,36.5,27.7,29.57,NW,305,0.0,0.0,70,0.00,,,0.00,VWS V14.01,2013-03-26 04:16:00,
2013-03-26 00:21:00,36.2,27.4,29.57,NW,305,0.0,0.0,70,0.00,,,0.00,VWS V14.01,2013-03-26 04:21:00,
2013-03-26 00:26:00,36.0,27.5,29.57,NW,305,0.0,1.0,71,0.00,,,0.00,VWS V14.01,2013-03-26 04:26:00,
2013-03-26 00:31:00,35.8,27.3,29.57,NW,305,0.0,0.0,71,0.00,,,0.00,VWS V14.01,2013-03-26 04:31:00,
2013-03-26 00:36:00,35.7,27.6,29.57,NW,305,0.0,1.0,72,0.00,,,0.00,VWS V14.01,2013-03-26 04:36:00,
2013-03-26 00:41:00,35.6,27.5,29.58,NW,305,0.0,1.0,72,0.00,,,0.00,VWS V14.01,2013-03-26 04:41:00,
2013-03-26 00:46:00,35.6,27.8,29.58,NW,305,0.0,1.0,73,0.00,,,0.00,VWS V14.01,2013-03-26 04:46:00,
2013-03-26 00:51:00,35.6,27.8,29.58,NW,305,0.0,2.0,73,0.00,,,0.00,VWS V14.01,2013-03-26 04:51:00,
2013-03-26 00:57:00,35.9,28.1,29.58,NW,309,0.0,3.0,73,0.00,,,0.00,VWS V14.01,2013-03-26 04:57:00,
2013-03-26 01:02:00,35.8,27.7,29.58,NW,309,0.0,0.0,72,0.00,,,0.00,VWS V14.01,2013-03-26 05:02:00,
2013-03-26 01:07:00,35.7,27.9,29.58,NW,309,0.0,0.0,73,0.00,,,0.00,VWS V14.01,2013-03-26 05:07:00,
2013-03-26 01:12:00,35.4,28.0,29.58,NW,309,0.0,0.0,74,0.00,,,0.00,VWS V14.01,2013-03-26 05:12:00,
2013-03-26 01:17:00,35.1,28.0,29.58,NW,309,0.0,0.0,75,0.00,,,0.00,VWS V14.01,2013-03-26 05:17:00,
2013-03-26 01:22:00,34.9,27.8,29.58,NW,309,0.0,0.0,75,0.00,,,0.00,VWS V14.01,2013-03-26 05:22:00,
2013-03-26 01:27:00,34.6,28.1,29.58,NW,309,0.0,0.0,77,0.00,,,0.00,VWS V14.01,2013-03-26 05:27:00,
2013-03-26 01:32:00,34.4,28.0,29.58,NW,309,0.0,0.0,77,0.00,,,0.00,VWS V14.01,2013-03-26 05:32:00,
2013-03-26 01:37:00,34.3,28.2,29.58,NW,309,0.0,0.0,78,0.00,,,0.00,VWS V14.01,2013-03-26 05:37:00,
2013-03-26 01:42:00,34.3,28.5,29.58,NW,311,0.0,1.0,79,0.00,,,0.00,VWS V14.01,2013-03-26 05:42:00,
2013-03-26 01:47:00,34.5,28.4,29.58,NW,311,0.0,1.0,78,0.00,,,0.00,VWS V14.01,2013-03-26 05:47:00,
2013-03-26 01:52:00,34.6,28.5,29.58,NW,311,0.0,1.0,78,0.00,,,0.00,VWS V14.01,2013-03-26 05:52:00,
2013-03-26 01:57:00,34.9,28.8,29.59,NNW,336,0.0,4.0,78,0.00,,,0.00,VWS V14.01,2013-03-26 05:57:00,
2013-03-26 02:02:00,35.2,29.0,29.59,NE,49,0.0,0.0,78,0.00,,,0.00,VWS V14.01,2013-03-26 06:02:00,
2013-03-26 02:07:00,35.4,29.2,29.59,ENE,57,0.0,1.0,78,0.00,,,0.00,VWS V14.01,2013-03-26 06:07:00,
2013-03-26 02:12:00,35.5,29.3,29.59,ENE,57,0.0,1.0,78,0.00,,,0.00,VWS V14.01,2013-03-26 06:12:00,
2013-03-26 02:17:00,35.6,29.1,29.59,NE,53,0.0,3.0,77,0.00,,,0.00,VWS V14.01,2013-03-26 06:17:00,
2013-03-26 02:22:00,35.7,29.2,29.60,NE,53,0.0,3.0,77,0.00,,,0.00,VWS V14.01,2013-03-26 06:22:00,
2013-03-26 02:27:00,35.6,29.4,29.60,NE,53,0.0,3.0,78,0.00,,,0.00,VWS V14.01,2013-03-26 06:27:00,
2013-03-26 02:32:00,35.6,29.4,29.60,NE,53,0.0,0.0,78,0.00,,,0.00,VWS V14.01,2013-03-26 06:32:00,
2013-03-26 02:38:00,35.5,29.6,29.60,NE,53,0.0,0.0,79,0.00,,,0.00,VWS V14.01,2013-03-26 06:38:00,
2013-03-26 02:43:00,35.3,29.1,29.60,NE,53,0.0,0.0,78,0.00,,,0.00,VWS V14.01,2013-03-26 06:43:00,
2013-03-26 02:48:00,35.1,29.3,29.59,NE,53,0.0,0.0,79,0.00,,,0.00,VWS V14.01,2013-03-26 06:48:00,
2013-03-26 02:53:00,34.9,29.4,29.59,NE,53,0.0,0.0,80,0.00,,,0.00,VWS V14.01,2013-03-26 06:53:00,
2013-03-26 02:58:00,34.7,29.2,29.59,NE,53,0.0,0.0,80,0.00,,,0.00,VWS V14.01,2013-03-26 06:58:00,
2013-03-26 03:03:00,34.6,29.1,29.60,NE,53,0.0,0.0,80,0.00,,,0.00,VWS V14.01,2013-03-26 07:03:00,
2013-03-26 03:08:00,34.4,28.9,29.59,NE,53,0.0,0.0,80,0.00,,,0.00,VWS V14.01,2013-03-26 07:08:00,
2013-03-26 03:13:00,34.4,29.2,29.59,NE,53,0.0,0.0,81,0.00,,,0.00,VWS V14.01,2013-03-26 07:13:00,
2013-03-26 03:18:00,34.2,29.0,29.59,NE,53,0.0,0.0,81,0.00,,,0.00,VWS V14.01,2013-03-26 07:18:00,
2013-03-26 03:24:00,34.1,28.9,29.59,NE,53,0.0,0.0,81,0.00,,,0.00,VWS V14.01,2013-03-26 07:24:00,
2013-03-26 03:29:00,33.9,29.0,29.60,NE,53,0.0,0.0,82,0.00,,,0.00,VWS V14.01,2013-03-26 07:29:00,
2013-03-26 03:34:00,33.8,28.9,29.60,NE,53,0.0,0.0,82,0.00,,,0.00,VWS V14.01,2013-03-26 07:34:00,
2013-03-26 03:39:00,33.7,28.8,29.60,NE,53,0.0,1.0,82,0.00,,,0.00,VWS V14.01,2013-03-26 07:39:00,
2013-03-26 03:44:00,33.5,28.6,29.60,NE,53,0.0,1.0,82,0.00,,,0.00,VWS V14.01,2013-03-26 07:44:00,
2013-03-26 03:49:00,33.4,28.8,29.60,NE,53,0.0,1.0,83,0.00,,,0.00,VWS V14.01,2013-03-26 07:49:00,
2013-03-26 03:54:00,33.3,28.7,29.60,NE,53,0.0,1.0,83,0.00,,,0.00,VWS V14.01,2013-03-26 07:54:00,
2013-03-26 03:59:00,33.2,28.6,29.60,NE,53,0.0,1.0,83,0.00,,,0.00,VWS V14.01,2013-03-26 07:59:00,
2013-03-26 04:04:00,33.1,28.5,29.60,NE,53,0.0,0.0,83,0.00,,,0.00,VWS V14.01,2013-03-26 08:04:00,
2013-03-26 04:09:00,33.0,28.7,29.60,NE,53,0.0,0.0,84,0.00,,,0.00,VWS V14.01,2013-03-26 08:09:00,
2013-03-26 04:14:00,32.9,28.6,29.60,NE,53,0.0,0.0,84,0.00,,,0.00,VWS V14.01,2013-03-26 08:14:00,
2013-03-26 04:19:00,32.8,28.5,29.60,NE,53,0.0,0.0,84,0.00,,,0.00,VWS V14.01,2013-03-26 08:19:00,
2013-03-26 04:24:00,32.6,28.3,29.60,NE,53,0.0,0.0,84,0.00,,,0.00,VWS V14.01,2013-03-26 08:24:00,
2013-03-26 04:29:00,32.5,28.2,29.60,NE,53,0.0,0.0,84,0.00,,,0.00,VWS V14.01,2013-03-26 08:29:00,
2013-03-26 04:34:00,32.4,28.4,29.61,NE,53,0.0,0.0,85,0.00,,,0.00,VWS V14.01,2013-03-26 08:34:00,
2013-03-26 04:39:00,32.3,28.3,29.61,NE,53,0.0,0.0,85,0.00,,,0.00,VWS V14.01,2013-03-26 08:39:00,
2013-03-26 04:44:00,32.3,28.6,29.61,NE,53,0.0,1.0,86,0.00,,,0.00,VWS V14.01,2013-03-26 08:44:00,
2013-03-26 04:49:00,32.3,28.6,29.61,NE,53,0.0,1.0,86,0.00,,,0.00,VWS V14.01,2013-03-26 08:49:00,
2013-03-26 04:54:00,32.4,28.7,29.61,NE,53,0.0,1.0,86,0.00,,,0.00,VWS V14.01,2013-03-26 08:54:00,
2013-03-26 05:00:00,32.3,30.2,29.62,NE,53,0.0,1.0,92,0.00,,,0.00,VWS V14.01,2013-03-26 09:00:00,
2013-03-26 05:05:00,32.3,28.6,29.62,NE,53,0.0,0.0,86,0.00,,,0.00,VWS V14.01,2013-03-26 09:05:00,
2013-03-26 05:10:00,32.2,28.5,29.62,NE,53,0.0,0.0,86,0.00,,,0.00,VWS V14.01,2013-03-26 09:10:00,
2013-03-26 05:15:00,32.2,28.8,29.62,NE,53,0.0,0.0,87,0.00,,,0.00,VWS V14.01,2013-03-26 09:15:00,
2013-03-26 05:20:00,32.2,28.8,29.62,NE,53,0.0,0.0,87,0.00,,,0.00,VWS V14.01,2013-03-26 09:20:00,
2013-03-26 05:25:00,32.2,28.8,29.63,NE,53,0.0,0.0,87,0.00,,,0.00,VWS V14.01,2013-03-26 09:25:00,
2013-03-26 05:30:00,32.2,28.8,29.63,NE,53,0.0,0.0,87,0.00,,,0.00,VWS V14.01,2013-03-26 09:30:00,
2013-03-26 05:35:00,32.1,29.0,29.63,NE,53,0.0,0.0,88,0.00,,,0.00,VWS V14.01,2013-03-26 09:35:00,
2013-03-26 05:40:00,32.1,29.0,29.63,NE,53,0.0,0.0,88,0.00,,,0.00,VWS V14.01,2013-03-26 09:40:00,
2013-03-26 05:45:00,32.1,29.0,29.63,NE,53,0.0,0.0,88,0.00,,,0.00,VWS V14.01,2013-03-26 09:45:00,
2013-03-26 05:50:00,32.0,28.9,29.64,NE,53,0.0,0.0,88,0.00,,,0.00,VWS V14.01,2013-03-26 09:50:00,
2013-03-26 05:55:00,32.0,28.9,29.64,NE,53,0.0,0.0,88,0.00,,,0.00,VWS V14.01,2013-03-26 09:55:00,
2013-03-26 06:00:00,32.0,28.9,29.64,NE,53,0.0,0.0,88,0.00,,,0.00,VWS V14.01,2013-03-26 10:00:00,
2013-03-26 06:05:00,31.9,28.8,29.64,NE,53,0.0,0.0,88,0.00,,,0.00,VWS V14.01,2013-03-26 10:05:00,
2013-03-26 06:10:00,31.9,28.8,29.64,NE,53,0.0,0.0,88,0.00,,,0.00,VWS V14.01,2013-03-26 10:10:00,
2013-03-26 06:15:00,31.8,28.7,29.64,NE,53,0.0,0.0,88,0.00,,,0.00,VWS V14.01,2013-03-26 10:15:00,
2013-03-26 06:20:00,31.7,28.6,29.65,NE,53,0.0,0.0,88,0.00,,,0.00,VWS V14.01,2013-03-26 10:20:00,
2013-03-26 06:25:00,31.7,28.6,29.65,NE,53,0.0,0.0,88,0.00,,,0.00,VWS V14.01,2013-03-26 10:25:00,
2013-03-26 06:30:00,31.7,28.6,29.65,NE,53,0.0,0.0,88,0.00,,,0.00,VWS V14.01,2013-03-26 10:30:00,
2013-03-26 06:35:00,31.6,28.5,29.65,NE,53,0.0,0.0,88,0.00,,,0.00,VWS V14.01,2013-03-26 10:35:00,
2013-03-26 06:40:00,31.7,28.6,29.65,NE,53,0.0,0.0,88,0.00,,,0.00,VWS V14.01,2013-03-26 10:40:00,
2013-03-26 06:46:00,31.7,28.6,29.65,NE,53,0.0,0.0,88,0.00,,,0.00,VWS V14.01,2013-03-26 10:46:00,
2013-03-26 06:51:00,31.7,28.6,29.65,NE,53,0.0,0.0,88,0.00,,,0.00,VWS V14.01,2013-03-26 10:51:00,
2013-03-26 06:56:00,31.6,28.5,29.66,NE,53,0.0,0.0,88,0.00,,,0.00,VWS V14.01,2013-03-26 10:56:00,
2013-03-26 07:01:00,31.6,28.5,29.66,NE,53,0.0,0.0,88,0.00,,,0.00,VWS V14.01,2013-03-26 11:01:00,
2013-03-26 07:06:00,31.6,28.5,29.66,NE,53,0.0,0.0,88,0.00,,,0.00,VWS V14.01,2013-03-26 11:06:00,
2013-03-26 07:11:00,31.7,28.6,29.66,NE,53,0.0,0.0,88,0.00,,,0.00,VWS V14.01,2013-03-26 11:11:00,
2013-03-26 07:16:00,31.7,28.6,29.67,NE,53,0.0,0.0,88,0.00,,,0.00,VWS V14.01,2013-03-26 11:16:00,
2013-03-26 07:21:00,31.7,28.6,29.67,NE,53,0.0,0.0,88,0.00,,,0.00,VWS V14.01,2013-03-26 11:21:00,
2013-03-26 07:26:00,31.9,29.0,29.67,NE,53,0.0,0.0,89,0.00,,,0.00,VWS V14.01,2013-03-26 11:26:00,
2013-03-26 07:31:00,32.0,29.1,29.67,NE,53,0.0,0.0,89,0.00,,,0.00,VWS V14.01,2013-03-26 11:31:00,
2013-03-26 07:37:00,32.2,29.3,29.67,NE,53,0.0,0.0,89,0.00,,,0.00,VWS V14.01,2013-03-26 11:37:00,
2013-03-26 07:42:00,32.4,29.2,29.67,NE,53,0.0,0.0,88,0.00,,,0.00,VWS V14.01,2013-03-26 11:42:00,
2013-03-26 07:47:00,32.6,29.7,29.67,NE,53,0.0,0.0,89,0.00,,,0.00,VWS V14.01,2013-03-26 11:47:00,
2013-03-26 07:52:00,32.8,29.6,29.68,NE,53,0.0,0.0,88,0.00,,,0.00,VWS V14.01,2013-03-26 11:52:00,
2013-03-26 07:57:00,33.0,29.8,29.68,NE,53,0.0,0.0,88,0.00,,,0.00,VWS V14.01,2013-03-26 11:57:00,
2013-03-26 08:02:00,33.2,30.0,29.68,NE,53,0.0,0.0,88,0.00,,,0.00,VWS V14.01,2013-03-26 12:02:00,
2013-03-26 08:07:00,33.4,30.2,29.68,NE,53,0.0,0.0,88,0.00,,,0.00,VWS V14.01,2013-03-26 12:07:00,
2013-03-26 08:12:00,33.6,30.4,29.69,NE,53,0.0,0.0,88,0.00,,,0.00,VWS V14.01,2013-03-26 12:12:00,
2013-03-26 08:17:00,33.9,30.7,29.69,NE,53,0.0,0.0,88,0.00,,,0.00,VWS V14.01,2013-03-26 12:17:00,
2013-03-26 08:22:00,34.2,31.0,29.69,NE,53,0.0,0.0,88,0.00,,,0.00,VWS V14.01,2013-03-26 12:22:00,
2013-03-26 08:27:00,34.6,31.4,29.69,NE,53,0.0,0.0,88,0.00,,,0.00,VWS V14.01,2013-03-26 12:27:00,
2013-03-26 08:32:00,35.0,31.5,29.69,NE,53,0.0,0.0,87,0.00,,,0.00,VWS V14.01,2013-03-26 12:32:00,
2013-03-26 08:37:00,35.3,31.8,29.69,NE,53,0.0,0.0,87,0.00,,,0.00,VWS V14.01,2013-03-26 12:37:00,
2013-03-26 08:43:00,35.7,31.4,29.69,NE,53,0.0,0.0,84,0.00,,,0.00,VWS V14.01,2013-03-26 12:43:00,
2013-03-26 08:48:00,36.1,30.5,29.69,NE,53,0.0,1.0,80,0.00,,,0.00,VWS V14.01,2013-03-26 12:48:00,
2013-03-26 08:53:00,36.5,30.6,29.69,NE,53,0.0,1.0,79,0.00,,,0.00,VWS V14.01,2013-03-26 12:53:00,
2013-03-26 08:58:00,36.9,31.0,29.69,NE,53,0.0,1.0,79,0.00,,,0.00,VWS V14.01,2013-03-26 12:58:00,
2013-03-26 09:03:00,37.2,31.0,29.69,NE,53,0.0,1.0,78,0.00,,,0.00,VWS V14.01,2013-03-26 13:03:00,
2013-03-26 09:08:00,37.5,31.0,29.69,NE,53,0.0,1.0,77,0.00,,,0.00,VWS V14.01,2013-03-26 13:08:00,
2013-03-26 09:13:00,37.7,30.2,29.69,North,350,2.0,3.0,74,0.00,,,0.00,VWS V14.01,2013-03-26 13:13:00,
2013-03-26 09:18:00,37.9,30.7,29.69,North,360,0.0,4.0,75,0.00,,,0.00,VWS V14.01,2013-03-26 13:18:00,
2013-03-26 09:23:00,38.2,31.0,29.69,North,5,0.0,4.0,75,0.00,,,0.00,VWS V14.01,2013-03-26 13:23:00,
2013-03-26 09:28:00,38.4,30.9,29.70,North,5,0.0,4.0,74,0.00,,,0.00,VWS V14.01,2013-03-26 13:28:00,
2013-03-26 09:33:00,38.7,31.1,29.70,SE,128,2.0,2.0,74,0.00,,,0.00,VWS V14.01,2013-03-26 13:33:00,
2013-03-26 09:38:00,38.8,30.6,29.70,NNE,29,1.0,5.0,72,0.00,,,0.00,VWS V14.01,2013-03-26 13:38:00,
2013-03-26 09:43:00,39.0,30.8,29.70,SSW,204,0.0,5.0,72,0.00,,,0.00,VWS V14.01,2013-03-26 13:43:00,
2013-03-26 09:48:00,39.3,30.7,29.70,North,9,0.0,5.0,71,0.00,,,0.00,VWS V14.01,2013-03-26 13:48:00,
2013-03-26 09:53:00,39.6,31.7,29.70,North,9,0.0,5.0,73,0.00,,,0.00,VWS V14.01,2013-03-26 13:53:00,
2013-03-26 09:58:00,39.9,31.3,29.70,North,9,1.0,5.0,71,0.00,,,0.00,VWS V14.01,2013-03-26 13:58:00,
2013-03-26 10:03:00,40.2,31.2,29.70,SE,140,0.0,1.0,70,0.00,,,0.00,VWS V14.01,2013-03-26 14:03:00,
2013-03-26 10:08:00,40.5,31.5,29.71,SE,136,1.0,4.0,70,0.00,,,0.00,VWS V14.01,2013-03-26 14:08:00,
2013-03-26 10:13:00,40.7,31.0,29.71,SE,138,0.0,4.0,68,0.00,,,0.00,VWS V14.01,2013-03-26 14:13:00,
2013-03-26 10:18:00,40.8,31.4,29.71,SE,138,0.0,4.0,69,0.00,,,0.00,VWS V14.01,2013-03-26 14:18:00,
2013-03-26 10:23:00,40.9,30.8,29.71,NW,318,0.0,8.0,67,0.00,,,0.00,VWS V14.01,2013-03-26 14:23:00,
2013-03-26 10:28:00,41.0,30.9,29.71,WNW,296,1.0,8.0,67,0.00,,,0.00,VWS V14.01,2013-03-26 14:28:00,
2013-03-26 10:34:00,41.3,31.5,29.71,ENE,61,0.0,4.0,68,0.00,,,0.00,VWS V14.01,2013-03-26 14:34:00,
2013-03-26 10:39:00,41.6,31.5,29.71,NNW,346,1.0,4.0,67,0.00,,,0.00,VWS V14.01,2013-03-26 14:39:00,
2013-03-26 10:44:00,41.9,31.8,29.71,NNW,346,0.0,4.0,67,0.00,,,0.00,VWS V14.01,2013-03-26 14:44:00,
2013-03-26 10:49:00,42.5,32.3,29.71,ENE,64,2.0,5.0,67,0.00,,,0.00,VWS V14.01,2013-03-26 14:49:00,
2013-03-26 10:54:00,42.6,31.3,29.71,SW,223,0.0,5.0,64,0.00,,,0.00,VWS V14.01,2013-03-26 14:54:00,
2013-03-26 10:59:00,42.8,31.9,29.71,NW,320,1.0,5.0,65,0.00,,,0.00,VWS V14.01,2013-03-26 14:59:00,
2013-03-26 11:04:00,43.1,32.2,29.71,East,90,0.0,4.0,65,0.00,,,0.00,VWS V14.01,2013-03-26 15:04:00,
2013-03-26 11:09:00,43.6,31.9,29.71,WNW,284,0.0,4.0,63,0.00,,,0.00,VWS V14.01,2013-03-26 15:09:00,
2013-03-26 11:14:00,43.5,31.8,29.71,SSE,147,1.0,4.0,63,0.00,,,0.00,VWS V14.01,2013-03-26 15:14:00,
2013-03-26 11:19:00,43.4,31.3,29.71,NNW,345,1.0,7.0,62,0.00,,,0.00,VWS V14.01,2013-03-26 15:19:00,
2013-03-26 11:24:00,43.4,32.0,29.71,ENE,63,1.0,7.0,64,0.00,,,0.00,VWS V14.01,2013-03-26 15:24:00,
2013-03-26 11:29:00,44.1,32.7,29.71,East,90,1.0,7.0,64,0.00,,,0.00,VWS V14.01,2013-03-26 15:29:00,
2013-03-26 11:34:00,44.1,31.5,29.71,East,88,0.0,4.0,61,0.00,,,0.00,VWS V14.01,2013-03-26 15:34:00,
2013-03-26 11:39:00,44.0,31.8,29.71,NE,53,1.0,6.0,62,0.00,,,0.00,VWS V14.01,2013-03-26 15:39:00,
2013-03-26 11:44:00,44.8,32.6,29.71,East,80,4.0,8.0,62,0.00,,,0.00,VWS V14.01,2013-03-26 15:44:00,
2013-03-26 11:49:00,45.8,32.7,29.72,West,279,2.0,8.0,60,0.00,,,0.00,VWS V14.01,2013-03-26 15:49:00,
2013-03-26 11:54:00,46.0,32.1,29.72,NW,304,2.0,8.0,58,0.00,,,0.00,VWS V14.01,2013-03-26 15:54:00,
2013-03-26 11:59:00,45.8,31.9,29.72,ENE,68,6.0,8.0,58,0.00,,,0.00,VWS V14.01,2013-03-26 15:59:00,
2013-03-26 12:04:00,45.2,31.7,29.72,NNW,329,0.0,8.0,59,0.00,,,0.00,VWS V14.01,2013-03-26 16:04:00,
2013-03-26 12:09:00,45.8,32.7,29.72,SSE,159,4.0,8.0,60,0.00,,,0.00,VWS V14.01,2013-03-26 16:09:00,
2013-03-26 12:14:00,46.3,32.3,29.71,North,355,0.0,8.0,58,0.00,,,0.00,VWS V14.01,2013-03-26 16:14:00,
2013-03-26 12:19:00,45.9,32.0,29.72,NE,46,1.0,8.0,58,0.00,,,0.00,VWS V14.01,2013-03-26 16:19:00,
2013-03-26 12:24:00,45.7,31.8,29.72,NE,34,1.0,8.0,58,0.00,,,0.00,VWS V14.01,2013-03-26 16:24:00,
2013-03-26 12:29:00,45.6,30.8,29.72,WNW,284,8.0,8.0,56,0.00,,,0.00,VWS V14.01,2013-03-26 16:29:00,
2013-03-26 12:34:00,45.8,31.0,29.72,SSW,205,0.0,3.0,56,0.00,,,0.00,VWS V14.01,2013-03-26 16:34:00,
2013-03-26 12:39:00,46.0,31.2,29.72,NW,323,0.0,5.0,56,0.00,,,0.00,VWS V14.01,2013-03-26 16:39:00,
2013-03-26 12:44:00,46.0,31.2,29.72,North,360,0.0,5.0,56,0.00,,,0.00,VWS V14.01,2013-03-26 16:44:00,
2013-03-26 12:49:00,46.2,31.4,29.72,East,86,5.0,5.0,56,0.00,,,0.00,VWS V14.01,2013-03-26 16:49:00,
2013-03-26 12:54:00,46.8,32.4,29.71,SE,130,0.0,5.0,57,0.00,,,0.00,VWS V14.01,2013-03-26 16:54:00,
2013-03-26 12:59:00,47.5,31.7,29.72,NNE,17,1.0,7.0,54,0.00,,,0.00,VWS V14.01,2013-03-26 16:59:00,
2013-03-26 13:05:00,47.2,31.0,29.71,NNE,18,2.0,7.0,53,0.00,,,0.00,VWS V14.01,2013-03-26 17:05:00,
2013-03-26 13:10:00,46.7,30.0,29.72,NW,307,6.0,7.0,52,0.00,,,0.00,VWS V14.01,2013-03-26 17:10:00,
2013-03-26 13:15:00,46.3,31.9,29.72,NNW,329,1.0,8.0,57,0.00,,,0.00,VWS V14.01,2013-03-26 17:15:00,
2013-03-26 13:20:00,47.4,31.1,29.72,NW,319,6.0,8.0,53,0.00,,,0.00,VWS V14.01,2013-03-26 17:20:00,
2013-03-26 13:25:00,47.4,30.7,29.72,NW,304,2.0,10.0,52,0.00,,,0.00,VWS V14.01,2013-03-26 17:25:00,
2013-03-26 13:30:00,46.3,30.1,29.72,ENE,70,2.0,10.0,53,0.00,,,0.00,VWS V14.01,2013-03-26 17:30:00,
2013-03-26 13:35:00,46.2,30.0,29.72,West,280,0.0,9.0,53,0.00,,,0.00,VWS V14.01,2013-03-26 17:35:00,
2013-03-26 13:40:00,46.0,29.8,29.72,NNW,334,3.0,9.0,53,0.00,,,0.00,VWS V14.01,2013-03-26 17:40:00,
2013-03-26 13:45:00,45.9,30.7,29.72,ENE,65,2.0,9.0,55,0.00,,,0.00,VWS V14.01,2013-03-26 17:45:00,
2013-03-26 13:50:00,46.7,31.4,29.72,NNW,327,0.0,9.0,55,0.00,,,0.00,VWS V14.01,2013-03-26 17:50:00,
2013-03-26 13:55:00,47.4,31.1,29.72,NE,55,2.0,9.0,53,0.00,,,0.00,VWS V14.01,2013-03-26 17:55:00,
2013-03-26 14:00:00,47.1,29.9,29.72,NE,42,3.0,9.0,51,0.00,,,0.00,VWS V14.01,2013-03-26 18:00:00,
2013-03-26 14:05:00,46.3,29.6,29.72,North,10,0.0,7.0,52,0.00,,,0.00,VWS V14.01,2013-03-26 18:05:00,
2013-03-26 14:10:00,46.0,29.4,29.72,North,355,1.0,7.0,52,0.00,,,0.00,VWS V14.01,2013-03-26 18:10:00,
2013-03-26 14:15:00,46.0,28.9,29.72,SSE,153,2.0,7.0,51,0.00,,,0.00,VWS V14.01,2013-03-26 18:15:00,
2013-03-26 14:20:00,46.8,29.6,29.71,NNW,340,1.0,8.0,51,0.00,,,0.00,VWS V14.01,2013-03-26 18:20:00,
2013-03-26 14:25:00,47.9,30.2,29.71,North,10,0.0,8.0,50,0.00,,,0.00,VWS V14.01,2013-03-26 18:25:00,
2013-03-26 14:30:00,48.8,30.0,29.71,WSW,254,1.0,8.0,48,0.00,,,0.00,VWS V14.01,2013-03-26 18:30:00,
2013-03-26 14:36:00,49.7,29.8,29.71,South,169,1.0,5.0,46,0.00,,,0.00,VWS V14.01,2013-03-26 18:36:00,
2013-03-26 14:41:00,49.9,30.5,29.72,North,9,3.0,5.0,47,0.00,,,0.00,VWS V14.01,2013-03-26 18:41:00,
2013-03-26 14:46:00,49.8,30.4,29.72,NNE,15,1.0,5.0,47,0.00,,,0.00,VWS V14.01,2013-03-26 18:46:00,
2013-03-26 14:51:00,50.1,30.7,29.72,ENE,74,0.0,6.0,47,0.00,,,0.00,VWS V14.01,2013-03-26 18:51:00,
2013-03-26 14:56:00,49.3,28.3,29.72,SSW,198,2.0,6.0,44,0.00,,,0.00,VWS V14.01,2013-03-26 18:56:00,
2013-03-26 15:01:00,48.0,29.3,29.72,NW,322,0.0,4.0,48,0.00,,,0.00,VWS V14.01,2013-03-26 19:01:00,
2013-03-26 15:07:00,46.8,26.6,29.72,East,84,0.0,5.0,45,0.00,,,0.00,VWS V14.01,2013-03-26 19:07:00,
2013-03-26 15:12:00,46.9,28.8,29.72,East,86,1.0,5.0,49,0.00,,,0.00,VWS V14.01,2013-03-26 19:12:00,
2013-03-26 15:17:00,47.7,27.4,29.72,ESE,109,1.0,5.0,45,0.00,,,0.00,VWS V14.01,2013-03-26 19:17:00,
2013-03-26 15:22:00,48.4,28.0,29.71,North,360,1.0,6.0,45,0.00,,,0.00,VWS V14.01,2013-03-26 19:22:00,
2013-03-26 15:27:00,49.3,28.9,29.72,NNW,342,0.0,6.0,45,0.00,,,0.00,VWS V14.01,2013-03-26 19:27:00,
2013-03-26 15:32:00,49.8,27.6,29.72,SW,234,0.0,3.0,42,0.00,,,0.00,VWS V14.01,2013-03-26 19:32:00,
2013-03-26 15:37:00,49.2,27.7,29.72,North,360,3.0,5.0,43,0.00,,,0.00,VWS V14.01,2013-03-26 19:37:00,
2013-03-26 15:42:00,48.7,27.2,29.72,East,98,5.0,5.0,43,0.00,,,0.00,VWS V14.01,2013-03-26 19:42:00,
2013-03-26 15:47:00,47.9,26.5,29.72,NW,320,2.0,5.0,43,0.00,,,0.00,VWS V14.01,2013-03-26 19:47:00,
2013-03-26 15:52:00,47.4,27.7,29.72,NNW,336,0.0,5.0,46,0.00,,,0.00,VWS V14.01,2013-03-26 19:52:00,
2013-03-26 15:57:00,47.4,27.1,29.72,West,261,0.0,6.0,45,0.00,,,0.00,VWS V14.01,2013-03-26 19:57:00,
2013-03-26 16:02:00,47.4,27.7,29.72,ESE,117,2.0,2.0,46,0.00,,,0.00,VWS V14.01,2013-03-26 20:02:00,
2013-03-26 16:07:00,47.5,27.8,29.72,ENE,76,2.0,3.0,46,0.00,,,0.00,VWS V14.01,2013-03-26 20:07:00,
2013-03-26 16:12:00,47.8,27.5,29.72,North,355,3.0,3.0,45,0.00,,,0.00,VWS V14.01,2013-03-26 20:12:00,
2013-03-26 16:18:00,48.6,27.7,29.72,NNW,329,3.0,4.0,44,0.00,,,0.00,VWS V14.01,2013-03-26 20:18:00,
2013-03-26 16:23:00,48.8,26.2,29.72,NE,53,2.0,5.0,41,0.00,,,0.00,VWS V14.01,2013-03-26 20:23:00,
2013-03-26 16:28:00,48.5,25.9,29.72,NNE,15,0.0,5.0,41,0.00,,,0.00,VWS V14.01,2013-03-26 20:28:00,
2013-03-26 16:33:00,48.6,25.4,29.73,ENE,60,0.0,5.0,40,0.00,,,0.00,VWS V14.01,2013-03-26 20:33:00,
2013-03-26 16:38:00,48.1,25.5,29.73,East,96,0.0,5.0,41,0.00,,,0.00,VWS V14.01,2013-03-26 20:38:00,
2013-03-26 16:43:00,47.8,25.8,29.73,SSW,200,0.0,5.0,42,0.00,,,0.00,VWS V14.01,2013-03-26 20:43:00,
2013-03-26 16:48:00,47.4,25.5,29.73,North,360,0.0,5.0,42,0.00,,,0.00,VWS V14.01,2013-03-26 20:48:00,
2013-03-26 16:53:00,47.2,25.9,29.73,North,9,0.0,5.0,43,0.00,,,0.00,VWS V14.01,2013-03-26 20:53:00,
2013-03-26 16:58:00,46.8,27.1,29.73,North,10,1.0,6.0,46,0.00,,,0.00,VWS V14.01,2013-03-26 20:58:00,
2013-03-26 17:03:00,46.4,27.3,29.74,North,5,2.0,3.0,47,0.00,,,0.00,VWS V14.01,2013-03-26 21:03:00,
2013-03-26 17:08:00,45.9,27.3,29.74,North,5,3.0,3.0,48,0.00,,,0.00,VWS V14.01,2013-03-26 21:08:00,
2013-03-26 17:13:00,45.4,26.9,29.74,East,94,0.0,4.0,48,0.00,,,0.00,VWS V14.01,2013-03-26 21:13:00,
2013-03-26 17:18:00,45.2,25.7,29.74,East,94,0.0,4.0,46,0.00,,,0.00,VWS V14.01,2013-03-26 21:18:00,
2013-03-26 17:23:00,45.1,25.6,29.74,ENE,74,0.0,4.0,46,0.00,,,0.00,VWS V14.01,2013-03-26 21:23:00,
2013-03-26 17:28:00,45.1,26.1,29.74,SE,124,1.0,4.0,47,0.00,,,0.00,VWS V14.01,2013-03-26 21:28:00,
2013-03-26 17:33:00,45.1,25.6,29.74,SSW,211,1.0,4.0,46,0.00,,,0.00,VWS V14.01,2013-03-26 21:33:00,
2013-03-26 17:39:00,45.0,26.0,29.74,NE,44,0.0,6.0,47,0.00,,,0.00,VWS V14.01,2013-03-26 21:39:00,
2013-03-26 17:44:00,45.1,25.6,29.74,WNW,294,0.0,6.0,46,0.00,,,0.00,VWS V14.01,2013-03-26 21:44:00,
2013-03-26 17:49:00,45.2,25.7,29.74,ENE,73,5.0,6.0,46,0.00,,,0.00,VWS V14.01,2013-03-26 21:49:00,
2013-03-26 17:54:00,45.0,25.0,29.75,NW,325,0.0,6.0,45,0.00,,,0.00,VWS V14.01,2013-03-26 21:54:00,
2013-03-26 17:59:00,44.6,25.6,29.75,NW,304,0.0,6.0,47,0.00,,,0.00,VWS V14.01,2013-03-26 21:59:00,
2013-03-26 18:04:00,44.3,25.4,29.75,WNW,302,0.0,0.0,47,0.00,,,0.00,VWS V14.01,2013-03-26 22:04:00,
2013-03-26 18:09:00,44.0,24.6,29.75,SW,223,0.0,2.0,46,0.00,,,0.00,VWS V14.01,2013-03-26 22:09:00,
2013-03-26 18:14:00,43.6,24.7,29.75,SW,223,0.0,2.0,47,0.00,,,0.00,VWS V14.01,2013-03-26 22:14:00,
2013-03-26 18:19:00,43.5,25.1,29.75,WNW,302,0.0,4.0,48,0.00,,,0.00,VWS V14.01,2013-03-26 22:19:00,
2013-03-26 18:24:00,43.4,25.0,29.75,WNW,302,0.0,4.0,48,0.00,,,0.00,VWS V14.01,2013-03-26 22:24:00,
2013-03-26 18:29:00,43.2,25.8,29.75,WNW,302,0.0,4.0,50,0.00,,,0.00,VWS V14.01,2013-03-26 22:29:00,
2013-03-26 18:34:00,43.0,25.2,29.76,WNW,302,0.0,1.0,49,0.00,,,0.00,VWS V14.01,2013-03-26 22:34:00,
2013-03-26 18:39:00,42.9,25.6,29.76,WNW,290,0.0,2.0,50,0.00,,,0.00,VWS V14.01,2013-03-26 22:39:00,
2013-03-26 18:44:00,42.7,25.9,29.76,WNW,291,0.0,2.0,51,0.00,,,0.00,VWS V14.01,2013-03-26 22:44:00,
2013-03-26 18:50:00,42.4,25.1,29.76,NE,53,0.0,3.0,50,0.00,,,0.00,VWS V14.01,2013-03-26 22:50:00,
2013-03-26 18:55:00,42.2,25.4,29.76,North,5,0.0,4.0,51,0.00,,,0.00,VWS V14.01,2013-03-26 22:55:00,
2013-03-26 19:00:00,42.0,24.7,29.77,North,5,0.0,4.0,50,0.00,,,0.00,VWS V14.01,2013-03-26 23:00:00,
2013-03-26 19:05:00,41.6,24.4,29.77,South,183,0.0,6.0,50,0.00,,,0.00,VWS V14.01,2013-03-26 23:05:00,
2013-03-26 19:10:00,41.5,24.7,29.77,South,183,0.0,6.0,51,0.00,,,0.00,VWS V14.01,2013-03-26 23:10:00,
2013-03-26 19:15:00,41.2,24.9,29.77,South,183,0.0,6.0,52,0.00,,,0.00,VWS V14.01,2013-03-26 23:15:00,
2013-03-26 19:20:00,40.8,25.0,29.77,South,183,0.0,6.0,53,0.00,,,0.00,VWS V14.01,2013-03-26 23:20:00,
2013-03-26 19:25:00,40.4,25.1,29.78,South,183,0.0,6.0,54,0.00,,,0.00,VWS V14.01,2013-03-26 23:25:00,
2013-03-26 19:30:00,39.9,24.6,29.78,South,183,0.0,6.0,54,0.00,,,0.00,VWS V14.01,2013-03-26 23:30:00,
2013-03-26 19:35:00,39.5,24.7,29.78,South,183,0.0,0.0,55,0.00,,,0.00,VWS V14.01,2013-03-26 23:35:00,
2013-03-26 19:40:00,39.0,25.1,29.78,South,183,0.0,0.0,57,0.00,,,0.00,VWS V14.01,2013-03-26 23:40:00,
2013-03-26 19:45:00,38.4,24.9,29.78,South,183,0.0,2.0,58,0.00,,,0.00,VWS V14.01,2013-03-26 23:45:00,
2013-03-26 19:50:00,37.9,24.9,29.78,South,183,1.0,2.0,59,0.00,,,0.00,VWS V14.01,2013-03-26 23:50:00,
2013-03-26 19:55:00,37.4,24.8,29.79,South,183,0.0,2.0,60,0.00,,,0.00,VWS V14.01,2013-03-26 23:55:00,
2013-03-26 20:00:00,37.0,25.6,29.79,South,183,0.0,2.0,63,0.00,,,0.00,VWS V14.01,2013-03-27 00:00:00,
2013-03-26 20:05:00,36.6,25.6,29.79,South,183,0.0,1.0,64,0.00,,,0.00,VWS V14.01,2013-03-27 00:05:00,
2013-03-26 20:11:00,36.1,25.5,29.79,South,183,0.0,1.0,65,0.00,,,0.00,VWS V14.01,2013-03-27 00:11:00,
2013-03-26 20:16:00,35.6,25.4,29.79,South,183,1.0,2.0,66,0.00,,,0.00,VWS V14.01,2013-03-27 00:16:00,
2013-03-26 20:21:00,35.1,25.6,29.79,South,183,0.0,2.0,68,0.00,,,0.00,VWS V14.01,2013-03-27 00:21:00,
2013-03-26 20:26:00,34.6,25.5,29.80,South,183,0.0,2.0,69,0.00,,,0.00,VWS V14.01,2013-03-27 00:26:00,
2013-03-26 20:31:00,34.1,25.4,29.80,South,183,0.0,0.0,70,0.00,,,0.00,VWS V14.01,2013-03-27 00:31:00,
2013-03-26 20:36:00,33.7,25.6,29.80,South,183,1.0,1.0,72,0.00,,,0.00,VWS V14.01,2013-03-27 00:36:00,
2013-03-26 20:41:00,33.3,25.6,29.80,South,183,0.0,1.0,73,0.00,,,0.00,VWS V14.01,2013-03-27 00:41:00,
2013-03-26 20:46:00,33.0,25.6,29.80,South,183,0.0,1.0,74,0.00,,,0.00,VWS V14.01,2013-03-27 00:46:00,
2013-03-26 20:51:00,32.6,25.6,29.81,South,183,0.0,1.0,75,0.00,,,0.00,VWS V14.01,2013-03-27 00:51:00,
2013-03-26 20:56:00,32.3,25.6,29.81,South,183,0.0,2.0,76,0.00,,,0.00,VWS V14.01,2013-03-27 00:56:00,
2013-03-26 21:01:00,32.0,25.6,29.81,South,183,1.0,2.0,77,0.00,,,0.00,VWS V14.01,2013-03-27 01:01:00,
2013-03-26 21:07:00,31.8,25.7,29.81,South,183,0.0,2.0,78,0.00,,,0.00,VWS V14.01,2013-03-27 01:07:00,
2013-03-26 21:12:00,31.6,25.5,29.81,South,183,1.0,2.0,78,0.00,,,0.00,VWS V14.01,2013-03-27 01:12:00,
2013-03-26 21:17:00,31.4,25.6,29.81,South,183,1.0,2.0,79,0.00,,,0.00,VWS V14.01,2013-03-27 01:17:00,
2013-03-26 21:22:00,31.1,25.7,29.81,South,183,0.0,2.0,80,0.00,,,0.00,VWS V14.01,2013-03-27 01:22:00,
2013-03-26 21:27:00,31.0,25.3,29.81,South,183,1.0,2.0,79,0.00,,,0.00,VWS V14.01,2013-03-27 01:27:00,
2013-03-26 21:32:00,30.8,25.1,29.82,South,183,0.0,1.0,79,0.00,,,0.00,VWS V14.01,2013-03-27 01:32:00,
2013-03-26 21:37:00,30.7,25.3,29.82,South,183,0.0,2.0,80,0.00,,,0.00,VWS V14.01,2013-03-27 01:37:00,
2013-03-26 21:42:00,30.5,25.1,29.82,South,183,0.0,2.0,80,0.00,,,0.00,VWS V14.01,2013-03-27 01:42:00,
2013-03-26 21:47:00,30.2,25.1,29.82,South,183,0.0,2.0,81,0.00,,,0.00,VWS V14.01,2013-03-27 01:47:00,
2013-03-26 21:52:00,29.9,24.8,29.82,South,183,0.0,2.0,81,0.00,,,0.00,VWS V14.01,2013-03-27 01:52:00,
2013-03-26 21:57:00,29.7,24.9,29.82,South,183,0.0,2.0,82,0.00,,,0.00,VWS V14.01,2013-03-27 01:57:00,
2013-03-26 22:02:00,29.4,24.9,29.83,South,183,0.0,0.0,83,0.00,,,0.00,VWS V14.01,2013-03-27 02:02:00,
2013-03-26 22:07:00,29.2,25.0,29.83,South,183,0.0,0.0,84,0.00,,,0.00,VWS V14.01,2013-03-27 02:07:00,
2013-03-26 22:12:00,28.9,24.7,29.83,South,183,0.0,0.0,84,0.00,,,0.00,VWS V14.01,2013-03-27 02:12:00,
2013-03-26 22:17:00,28.8,24.6,29.83,South,183,0.0,0.0,84,0.00,,,0.00,VWS V14.01,2013-03-27 02:17:00,
2013-03-26 22:23:00,28.7,24.5,29.83,South,183,0.0,0.0,84,0.00,,,0.00,VWS V14.01,2013-03-27 02:23:00,
2013-03-26 22:28:00,28.6,24.4,29.83,South,183,0.0,1.0,84,0.00,,,0.00,VWS V14.01,2013-03-27 02:28:00,
2013-03-26 22:33:00,28.5,24.6,29.83,South,183,0.0,2.0,85,0.00,,,0.00,VWS V14.01,2013-03-27 02:33:00,
2013-03-26 22:38:00,28.4,24.5,29.83,South,183,0.0,2.0,85,0.00,,,0.00,VWS V14.01,2013-03-27 02:38:00,
2013-03-26 22:43:00,28.3,24.7,29.83,South,183,0.0,2.0,86,0.00,,,0.00,VWS V14.01,2013-03-27 02:43:00,
2013-03-26 22:48:00,28.3,24.7,29.83,South,183,0.0,2.0,86,0.00,,,0.00,VWS V14.01,2013-03-27 02:48:00,
2013-03-26 22:53:00,28.1,24.5,29.83,South,183,0.0,2.0,86,0.00,,,0.00,VWS V14.01,2013-03-27 02:53:00,
2013-03-26 22:58:00,28.1,24.5,29.83,South,183,0.0,2.0,86,0.00,,,0.00,VWS V14.01,2013-03-27 02:58:00,
2013-03-26 23:03:00,28.0,24.4,29.83,South,183,0.0,1.0,86,0.00,,,0.00,VWS V14.01,2013-03-27 03:03:00,
2013-03-26 23:08:00,28.0,24.4,29.83,South,183,0.0,1.0,86,0.00,,,0.00,VWS V14.01,2013-03-27 03:08:00,
2013-03-26 23:13:00,27.9,24.3,29.83,South,183,0.0,1.0,86,0.00,,,0.00,VWS V14.01,2013-03-27 03:13:00,
2013-03-26 23:18:00,27.7,24.3,29.83,South,183,0.0,1.0,87,0.00,,,0.00,VWS V14.01,2013-03-27 03:18:00,
2013-03-26 23:23:00,27.6,24.2,29.83,South,183,0.0,1.0,87,0.00,,,0.00,VWS V14.01,2013-03-27 03:23:00,
2013-03-26 23:28:00,27.4,24.0,29.83,South,183,0.0,1.0,87,0.00,,,0.00,VWS V14.01,2013-03-27 03:28:00,
2013-03-26 23:33:00,27.3,24.2,29.83,South,183,0.0,0.0,88,0.00,,,0.00,VWS V14.01,2013-03-27 03:33:00,
2013-03-26 23:38:00,27.2,24.1,29.83,South,183,0.0,0.0,88,0.00,,,0.00,VWS V14.01,2013-03-27 03:38:00,
2013-03-26 23:43:00,27.1,24.0,29.83,South,183,0.0,0.0,88,0.00,,,0.00,VWS V14.01,2013-03-27 03:43:00,
2013-03-26 23:48:00,27.0,23.9,29.83,South,183,0.0,0.0,88,0.00,,,0.00,VWS V14.01,2013-03-27 03:48:00,
2013-03-26 23:53:00,26.9,23.8,29.83,South,183,0.0,2.0,88,0.00,,,0.00,VWS V14.01,2013-03-27 03:53:00,
2013-03-26 23:58:00,26.9,24.1,29.83,South,183,0.0,2.0,89,0.00,,,0.00,VWS V14.01,2013-03-27 03:58:00,